Language selection

Features

My Weather Profile Weather Topics  | 

Juan de Fuca Strait - central strait: Past 24 Hour Conditions

 

Sentry Shoal - 46131

05:00 AM PST 11 December 2019Buoy position: 49.92N 125.0W
Disclaimer

This table is a summary of hourly weather conditions for the past 24 hours.
Please note that these observations might not always be representative of weather conditions over their associated marine area.

Date / Time
(PST)
Wind(knots) Wave height(m) Wave period(s) Pressure(kPa) Air tempC) Water tempC)
11 December 2019
5:00 E 12 gust 12 0.3 2.0 101.6 7 8
4:00 ESE 12 gust 13 0.2 2.0 101.7 7 8
3:00 ESE 8 gust 10 0.3 3.0 101.7 7 8
2:00 E 10 gust 12 0.3 4.0 101.7 7 8
1:00 E 10 gust 12 0.3 3.0 101.8 7 8
0:00 E 10 gust 12 0.3 4.0 101.8 7 8
10 December 2019
23:00 E 8 gust 10 0.4 4.0 101.9 7 8
22:00 E 8 gust 10 0.3 4.0 101.9 7 8
21:00 E 8 gust 10 0.4 4.0 101.9 7 8
20:00 E 10 gust 12 0.4 4.0 101.9 6 8
19:00 ESE 10 gust 12 0.5 4.0 101.9 6 8
18:00 E 10 gust 12 0.6 4.0 101.9 6 9
17:00 ESE 10 gust 12 0.6 4.0 101.9 7 9
16:00 ESE 10 gust 12 0.7 4.0 101.9 7 9
15:00 SE 12 gust 13 0.8 4.0 101.9 7 9
14:00 SE 13 gust 16 0.9 5.0 101.8 7 8
13:00 SE 13 gust 17 1.0 5.0 101.9 7 8
12:00 ESE 13 gust 16 0.9 5.0 101.9 7 8
11:00 ESE 19 gust 22 0.9 4.0 101.9 7 8
10:00 ESE 16 gust 19 0.8 4.0 102.0 7 8
9:00 SE 19 gust 23 0.8 4.0 101.9 7 8
8:00 SE 13 gust 17 0.7 4.0 101.9 7 8
7:00 ESE 17 gust 19 0.6 3.0 101.8 7 8
6:00 ESE 16 gust 19 0.4 3.0 101.8 7 8
5:00 ESE 13 gust 17 0.4 3.0 101.9 6 8

Zoom-in to make a selection

Map of Pacific - Georgia Basin marine weather areas Sentry Shoal - 46131 Halibut Bank - 46146 La Perouse Bank - 46206 Discovery Island Esquimalt Harbour Kelp Reefs Malahat Race Rocks Lightstation Saturna Island Sheringham Point University of Victoria Victoria Gonzales Victoria Int'l Airport Ballenas Islands Campbell River Airport Comox Airport Entrance Island Fanny Island Nanaimo Airport Sisters Islets Estevan Point Port Alberni Tofino Airport Grief Point Howe Sound - Pam Rocks Powell River Airport Sechelt Squamish Airport Point Atkinson Sand Heads Lightstation Tsawwassen Ferry Terminal Vancouver Int'l Airport Vancouver Harbour West Vancouver
Legend:
buoy Buoy
land station Land Station

Pacific - Georgia Basin Area

Another Region

What we are doing

Date modified: